Details for UPS at KPHL




Go Back


Latest METAR
Local Time

KPHL 180401Z 34005KT 3SM BR OVC006 01/00 A3005 RMK AO2 T00060000

17/02/2018, 23:34:08

Description
Results
UPS Logo
Number of Pilots based at KPHL
0 Pilots Based here
Number of UPS Flights Departed from KPHL
1 Flights Departed
Number of UPS Flights Arrived at KPHL
0 Flights Arrived
Number of UPS Schedules Departing from KPHL
195 Schedules
Number of UPS Schedules Arriving at KPHL
184 Schedules
Number of UPS Schedules Departing from KPHL availible today
4 Schedules Today
Number of UPS Schedules Arriving at KPHL availible today
1 Schedules Today
Average Landing Rate at KPHL
-233 fpm
UPS Average Landing Rate at KPHL
0 fpm
Total Fuel Purchased at KPHL by UPS
47,901.62 kgs / 105,603.91 lbs

Pilots Based at KPHL


Pilot ID
Pilot Name
Pilot Rank
No. of Flights
No. of Flying Hours
There are no pilots assigned to this hub!   Will you be the first?
Content